Time;durP1;ratioP1;P1;durP2;ratioP2;P2;SDS_P1;SDS_P2;PMS_P1;PMS_P2;Temp;Humidity;BMP_temperature;BMP_pressure;BME280_temperature;BME280_humidity;BME280_pressure;Samples;Min_cycle;Max_cycle;Signal;HPM_P1;HPM_P2
2022/11/08 00:01:42;;;;;;;3.90;1.73;;;12.00;99.90;;;;;;5009529;28;20226;-79
2022/11/08 00:04:10;;;;;;;3.10;1.70;;;12.00;99.90;;;;;;4992996;28;20222;-79
2022/11/08 00:14:51;;;;;;;7.47;2.00;;;12.00;99.90;;;;;;5009462;28;20218;-79
2022/11/08 00:17:20;;;;;;;5.23;1.80;;;12.10;99.90;;;;;;5008514;28;20243;-79
2022/11/08 00:19:47;;;;;;;5.80;1.83;;;12.10;99.90;;;;;;5002301;28;20316;-79
2022/11/08 00:22:15;;;;;;;3.53;1.40;;;12.10;99.90;;;;;;5004321;28;20234;-80
2022/11/08 00:24:42;;;;;;;4.77;2.00;;;12.10;99.90;;;;;;4981237;28;20227;-80
2022/11/08 00:27:11;;;;;;;5.97;1.97;;;12.20;99.90;;;;;;4990727;28;20670;-79
2022/11/08 00:29:38;;;;;;;5.43;1.73;;;12.20;99.90;;;;;;4987449;28;20251;-79
2022/11/08 00:32:10;;;;;;;4.07;1.60;;;12.20;99.90;;;;;;4982922;28;20804;-79
2022/11/08 00:34:37;;;;;;;6.37;1.90;;;12.20;99.90;;;;;;4982053;28;20230;-79
2022/11/08 00:37:04;;;;;;;5.10;1.80;;;12.20;99.90;;;;;;5005790;28;20238;-79
2022/11/08 00:39:31;;;;;;;6.00;1.90;;;12.20;99.90;;;;;;4996600;28;20231;-79
2022/11/08 00:41:57;;;;;;;4.87;1.70;;;12.30;99.90;;;;;;4987220;28;20226;-80
2022/11/08 00:44:24;;;;;;;2.93;1.60;;;12.30;99.90;;;;;;4984184;28;20236;-79
2022/11/08 00:46:52;;;;;;;5.90;1.50;;;12.30;99.90;;;;;;4990507;28;20229;-79
2022/11/08 00:49:20;;;;;;;6.03;2.00;;;12.30;99.90;;;;;;5000877;28;20228;-79
2022/11/08 00:51:46;;;;;;;4.90;1.67;;;12.30;99.90;;;;;;4981686;28;20223;-78
2022/11/08 00:54:14;;;;;;;5.50;1.60;;;12.30;99.90;;;;;;4980151;28;20229;-79
2022/11/08 00:56:42;;;;;;;5.60;1.73;;;12.30;99.90;;;;;;5004893;28;20232;-79
2022/11/08 00:59:11;;;;;;;6.27;2.07;;;12.30;99.90;;;;;;5003277;28;20230;-79
2022/11/08 01:01:38;;;;;;;5.63;1.73;;;12.30;99.90;;;;;;4986183;28;20240;-80
2022/11/08 01:04:05;;;;;;;6.47;1.60;;;12.20;99.90;;;;;;4985755;28;20233;-79
2022/11/08 01:06:33;;;;;;;3.60;1.83;;;12.20;99.90;;;;;;4999737;28;20737;-79
2022/11/08 01:09:00;;;;;;;6.93;1.90;;;12.20;99.90;;;;;;5000253;28;20228;-78
2022/11/08 01:11:27;;;;;;;4.77;1.80;;;12.10;99.90;;;;;;5002078;28;20240;-79
2022/11/08 01:13:57;;;;;;;4.60;1.90;;;12.10;99.90;;;;;;5000037;28;20226;-79
2022/11/08 01:16:26;;;;;;;5.67;1.80;;;12.10;99.90;;;;;;4984504;28;20794;-80
2022/11/08 01:18:54;;;;;;;6.17;2.10;;;12.00;99.90;;;;;;4983493;28;20232;-80
2022/11/08 01:21:22;;;;;;;4.73;1.53;;;12.00;99.90;;;;;;4980520;28;20225;-81
2022/11/08 01:23:50;;;;;;;7.63;1.80;;;12.00;99.90;;;;;;4980754;28;20720;-80
2022/11/08 01:26:19;;;;;;;5.50;1.80;;;11.90;99.90;;;;;;4998566;28;20230;-79
2022/11/08 01:28:46;;;;;;;4.77;1.67;;;11.90;99.90;;;;;;4979346;28;20226;-80
2022/11/08 01:31:16;;;;;;;7.43;1.70;;;11.80;99.90;;;;;;4982437;28;20911;-80
2022/11/08 01:33:43;;;;;;;4.73;1.53;;;11.80;99.90;;;;;;4992378;28;20221;-80
2022/11/08 01:36:14;;;;;;;7.30;2.30;;;11.80;99.90;;;;;;4990949;28;20232;-80
2022/11/08 01:38:41;;;;;;;3.60;1.50;;;11.80;99.90;;;;;;4994492;28;20230;-80
2022/11/08 01:41:12;;;;;;;6.27;1.83;;;11.80;99.90;;;;;;5003767;28;20257;-79
2022/11/08 01:43:41;;;;;;;7.07;1.90;;;11.80;99.90;;;;;;4980503;28;20285;-79
2022/11/08 01:46:37;;;;;;;4.23;1.90;;;11.70;99.90;;;;;;5001709;28;20229;-79
2022/11/08 01:49:28;;;;;;;3.97;1.40;;;11.70;99.90;;;;;;4997680;28;20295;-79
2022/11/08 01:52:02;;;;;;;6.63;1.73;;;11.70;99.90;;;;;;4999337;28;20286;-80
2022/11/08 01:54:36;;;;;;;6.23;2.00;;;11.70;99.90;;;;;;4981090;28;20228;-79
2022/11/08 01:57:08;;;;;;;4.87;1.67;;;11.60;99.90;;;;;;4998863;28;21018;-79
2022/11/08 01:59:36;;;;;;;6.57;1.67;;;11.60;99.90;;;;;;4981166;28;20249;-79
2022/11/08 02:02:03;;;;;;;7.00;2.00;;;11.60;99.90;;;;;;4982538;28;20255;-79
2022/11/08 02:04:30;;;;;;;4.40;1.77;;;11.50;99.90;;;;;;4995565;28;20229;-79
2022/11/08 02:06:57;;;;;;;5.57;1.70;;;11.50;99.90;;;;;;4978101;28;20255;-80
2022/11/08 02:09:24;;;;;;;7.73;2.13;;;11.50;99.90;;;;;;4996369;28;20256;-80
2022/11/08 02:11:53;;;;;;;5.87;2.03;;;11.50;99.90;;;;;;4980626;28;20668;-79
2022/11/08 02:14:21;;;;;;;6.83;1.90;;;11.40;99.90;;;;;;5000183;28;20229;-79
2022/11/08 02:16:48;;;;;;;4.20;2.10;;;11.40;99.90;;;;;;4997119;28;20231;-79
2022/11/08 02:19:24;;;;;;;4.90;1.70;;;11.40;99.90;;;;;;5004259;28;20226;-79
2022/11/08 02:21:55;;;;;;;5.60;1.67;;;11.30;99.90;;;;;;4984911;28;20542;-80
2022/11/08 02:24:24;;;;;;;6.53;1.83;;;11.30;99.90;;;;;;4985149;28;20226;-79
2022/11/08 02:26:54;;;;;;;6.53;1.90;;;11.30;99.90;;;;;;4984561;28;20229;-79
2022/11/08 02:29:26;;;;;;;5.67;1.83;;;11.20;99.90;;;;;;4978315;28;20694;-79
2022/11/08 02:31:54;;;;;;;7.50;2.00;;;11.20;99.90;;;;;;4982099;28;20249;-79
2022/11/08 02:34:24;;;;;;;7.03;2.10;;;11.20;99.90;;;;;;5005625;28;20227;-79
2022/11/08 02:36:51;;;;;;;5.80;1.60;;;11.10;99.90;;;;;;5005667;28;20233;-79
2022/11/08 02:39:17;;;;;;;5.53;1.70;;;11.20;99.90;;;;;;4979553;28;20312;-79
2022/11/08 02:41:47;;;;;;;5.80;2.10;;;11.20;99.90;;;;;;4996249;28;20259;-79
2022/11/08 02:44:13;;;;;;;8.63;2.50;;;11.20;99.90;;;;;;4993411;28;20213;-79
2022/11/08 02:46:40;;;;;;;3.00;1.70;;;11.10;99.90;;;;;;4999060;28;20239;-79
2022/11/08 02:49:07;;;;;;;5.60;1.97;;;11.20;99.90;;;;;;4999405;28;20232;-79
2022/11/08 02:51:34;;;;;;;7.23;1.63;;;11.20;99.90;;;;;;4997300;28;20278;-84
2022/11/08 02:54:00;;;;;;;5.63;2.00;;;11.20;99.90;;;;;;5001168;28;20240;-83
2022/11/08 02:56:27;;;;;;;6.53;1.80;;;11.20;99.90;;;;;;4984224;28;20241;-80
2022/11/08 02:58:56;;;;;;;3.60;1.80;;;11.20;99.90;;;;;;5001382;28;20703;-84
2022/11/08 03:01:23;;;;;;;7.33;2.30;;;11.20;99.90;;;;;;5003717;28;20715;-80
2022/11/08 03:03:50;;;;;;;5.33;1.90;;;11.20;99.90;;;;;;5001464;28;20241;-80
2022/11/08 03:06:16;;;;;;;8.23;1.93;;;11.20;99.90;;;;;;4989419;28;20225;-83
2022/11/08 03:08:43;;;;;;;5.90;2.27;;;11.20;99.90;;;;;;5001267;28;20225;-84
2022/11/08 03:11:10;;;;;;;3.90;1.90;;;11.20;99.90;;;;;;4984533;28;20250;-82
2022/11/08 03:13:36;;;;;;;4.70;1.70;;;11.30;99.90;;;;;;4983852;28;20229;-83
2022/11/08 03:16:05;;;;;;;5.73;1.87;;;11.30;99.90;;;;;;4986215;28;20304;-82
2022/11/08 03:18:33;;;;;;;6.43;2.03;;;11.30;99.90;;;;;;4980870;28;20683;-87
2022/11/08 03:21:00;;;;;;;5.93;2.13;;;11.30;99.90;;;;;;4982143;28;20218;-81
2022/11/08 03:23:27;;;;;;;5.93;1.90;;;11.30;99.90;;;;;;5004516;28;20236;-84
2022/11/08 03:25:54;;;;;;;8.17;1.97;;;11.30;99.90;;;;;;4985313;28;20264;-81
2022/11/08 03:28:21;;;;;;;5.17;2.30;;;11.30;99.90;;;;;;5006491;28;20237;-84
2022/11/08 03:30:50;;;;;;;6.23;1.77;;;11.30;99.90;;;;;;5006169;28;20218;-83
2022/11/08 03:33:19;;;;;;;4.83;2.23;;;11.20;99.90;;;;;;4985038;28;20217;-81
2022/11/08 03:35:47;;;;;;;6.47;2.13;;;11.20;99.90;;;;;;4988264;28;20235;-83
2022/11/08 03:38:14;;;;;;;5.00;1.97;;;11.20;99.90;;;;;;5003120;28;20224;-84
2022/11/08 03:40:41;;;;;;;8.50;2.50;;;11.10;99.90;;;;;;5009861;28;20227;-84
2022/11/08 03:43:08;;;;;;;4.63;1.80;;;11.10;99.90;;;;;;5001477;28;20246;-82
2022/11/08 03:45:35;;;;;;;5.10;1.70;;;11.00;99.90;;;;;;4983143;28;20256;-80
2022/11/08 03:48:01;;;;;;;5.90;1.97;;;11.00;99.90;;;;;;5000833;28;20276;-81
2022/11/08 03:50:29;;;;;;;5.23;1.80;;;10.90;99.90;;;;;;5009608;28;20228;-83
2022/11/08 03:52:57;;;;;;;5.10;1.77;;;10.90;99.90;;;;;;4986405;28;20227;-82
2022/11/08 03:55:25;;;;;;;8.00;2.00;;;10.90;99.90;;;;;;4983504;28;20248;-82
2022/11/08 03:57:52;;;;;;;6.30;1.73;;;10.90;99.90;;;;;;4990402;28;20237;-80
2022/11/08 04:00:21;;;;;;;4.80;1.60;;;10.80;99.90;;;;;;5005670;28;20720;-81
2022/11/08 04:02:48;;;;;;;6.17;1.80;;;10.80;99.90;;;;;;4992894;28;20225;-83
2022/11/08 04:05:16;;;;;;;7.30;1.90;;;10.70;99.90;;;;;;4991779;28;20228;-82
2022/11/08 04:07:44;;;;;;;6.10;2.30;;;10.70;99.90;;;;;;4992772;28;20233;-81
2022/11/08 04:10:12;;;;;;;8.07;1.83;;;10.60;99.90;;;;;;5008717;28;20226;-81
2022/11/08 04:15:24;;;;;;;6.57;2.20;;;10.60;99.90;;;;;;5009127;28;20224;-83
2022/11/08 04:23:23;;;;;;;10.07;2.23;;;10.50;99.90;;;;;;4989804;28;20732;-80
2022/11/08 04:25:54;;;;;;;8.37;1.70;;;10.50;99.90;;;;;;5002000;28;20228;-82
2022/11/08 04:28:23;;;;;;;6.97;2.30;;;10.50;99.90;;;;;;5001460;28;20232;-82
2022/11/08 04:30:53;;;;;;;4.53;2.07;;;10.40;99.90;;;;;;4990996;28;20233;-81
2022/11/08 04:33:20;;;;;;;8.43;2.33;;;10.40;99.90;;;;;;5007246;28;20298;-81
2022/11/08 04:35:47;;;;;;;5.93;2.30;;;10.30;99.90;;;;;;4988496;28;20288;-81
2022/11/08 04:38:13;;;;;;;6.00;1.97;;;10.20;99.90;;;;;;4985002;28;20221;-83
2022/11/08 04:40:41;;;;;;;5.43;1.90;;;10.20;99.90;;;;;;5006100;28;20704;-81
2022/11/08 04:43:08;;;;;;;8.30;1.90;;;10.10;99.90;;;;;;4984136;28;20228;-81
2022/11/08 04:45:35;;;;;;;3.87;1.97;;;10.10;99.90;;;;;;5007967;28;20236;-82
2022/11/08 04:48:01;;;;;;;7.67;2.00;;;10.00;99.90;;;;;;4988774;28;20771;-81
2022/11/08 04:50:28;;;;;;;8.83;2.13;;;10.00;99.90;;;;;;5007711;28;20324;-81
2022/11/08 04:52:55;;;;;;;5.40;2.57;;;9.90;99.90;;;;;;4983411;28;20328;-79
2022/11/08 04:55:23;;;;;;;4.77;1.73;;;9.80;99.90;;;;;;5002364;28;20258;-81
2022/11/08 04:57:51;;;;;;;4.13;2.23;;;9.80;99.90;;;;;;4977979;28;20725;-81
2022/11/08 05:00:18;;;;;;;4.70;2.20;;;9.80;99.90;;;;;;5000348;28;20253;-83
2022/11/08 05:02:44;;;;;;;8.40;2.10;;;9.70;99.90;;;;;;4972442;28;20228;-83
2022/11/08 05:05:11;;;;;;;5.10;2.03;;;9.70;99.90;;;;;;4997785;28;20295;-80
2022/11/08 05:07:38;;;;;;;5.13;1.90;;;9.70;99.90;;;;;;5003744;28;20638;-80
2022/11/08 05:10:05;;;;;;;7.00;2.13;;;9.60;99.90;;;;;;5002193;28;20224;-81
2022/11/08 05:12:32;;;;;;;4.90;2.00;;;9.60;99.90;;;;;;5002279;28;20229;-85
2022/11/08 05:15:00;;;;;;;5.97;2.10;;;9.50;99.90;;;;;;5002345;28;20241;-82
2022/11/08 05:17:27;;;;;;;5.17;2.13;;;9.50;99.90;;;;;;4998380;28;20231;-80
2022/11/08 05:25:22;;;;;;;5.63;1.80;;;9.40;99.90;;;;;;4997834;28;20229;-81
2022/11/08 05:27:48;;;;;;;7.10;2.30;;;9.40;99.90;;;;;;4981323;28;20237;-82
2022/11/08 05:30:16;;;;;;;5.10;1.93;;;9.40;99.90;;;;;;4987056;28;20357;-80
2022/11/08 05:32:43;;;;;;;14.57;2.90;;;9.30;99.90;;;;;;5001600;28;20235;-81
2022/11/08 05:35:10;;;;;;;7.60;2.40;;;9.30;99.90;;;;;;5002121;28;20572;-79
2022/11/08 05:37:40;;;;;;;4.63;2.27;;;9.30;99.90;;;;;;4997502;28;20235;-81
2022/11/08 05:40:08;;;;;;;9.00;2.17;;;9.20;99.90;;;;;;5002108;28;20217;-80
2022/11/08 05:42:35;;;;;;;6.20;2.00;;;9.20;99.90;;;;;;4997721;28;20253;-81
2022/11/08 05:45:02;;;;;;;9.00;2.17;;;9.20;99.90;;;;;;4996046;28;20651;-81
2022/11/08 05:47:30;;;;;;;4.77;2.33;;;9.20;99.90;;;;;;4996590;28;21094;-81
2022/11/08 05:49:56;;;;;;;6.70;2.13;;;9.10;99.90;;;;;;4987170;28;20713;-81
2022/11/08 05:52:23;;;;;;;6.63;2.10;;;9.10;99.90;;;;;;4983063;28;20226;-81
2022/11/08 05:54:50;;;;;;;5.97;2.30;;;9.10;99.90;;;;;;4994746;28;20228;-81
2022/11/08 05:57:16;;;;;;;6.03;2.37;;;9.10;99.90;;;;;;4982702;28;20232;-82
2022/11/08 05:59:43;;;;;;;6.43;2.30;;;9.00;99.90;;;;;;4999909;28;20224;-83
2022/11/08 06:02:10;;;;;;;6.90;2.10;;;9.00;99.90;;;;;;4998488;28;20953;-81
2022/11/08 06:04:38;;;;;;;7.30;2.10;;;9.00;99.90;;;;;;4984694;28;20270;-81
2022/11/08 06:07:04;;;;;;;8.97;2.00;;;9.00;99.90;;;;;;4996046;28;20220;-81
2022/11/08 06:09:31;;;;;;;6.43;2.20;;;8.90;99.90;;;;;;5000787;28;20259;-82
2022/11/08 06:11:58;;;;;;;7.33;2.30;;;8.90;99.90;;;;;;4996022;28;20229;-81
2022/11/08 06:14:25;;;;;;;5.67;2.40;;;8.90;99.90;;;;;;4998320;28;20698;-81
2022/11/08 06:16:51;;;;;;;7.10;2.30;;;8.90;99.90;;;;;;4998112;28;20251;-81
2022/11/08 06:19:18;;;;;;;6.23;2.43;;;8.90;99.90;;;;;;4999954;28;20231;-82
2022/11/08 06:21:46;;;;;;;4.13;2.20;;;8.80;99.90;;;;;;4975083;28;20235;-81
2022/11/08 06:24:15;;;;;;;8.70;2.50;;;8.80;99.90;;;;;;4983327;28;20236;-82
2022/11/08 06:26:42;;;;;;;5.80;2.30;;;8.80;99.90;;;;;;4994746;28;20347;-80
2022/11/08 06:29:08;;;;;;;9.27;2.53;;;8.80;99.90;;;;;;4994268;28;20733;-80
2022/11/08 06:31:38;;;;;;;4.90;2.07;;;8.80;99.90;;;;;;4997091;28;20531;-80
2022/11/08 06:34:05;;;;;;;5.87;2.17;;;8.80;99.90;;;;;;4979160;28;20220;-80
2022/11/08 06:36:31;;;;;;;4.70;2.17;;;8.80;99.90;;;;;;4999254;28;20697;-81
2022/11/08 06:39:03;;;;;;;6.13;2.50;;;8.80;99.90;;;;;;4992173;28;20314;-82
2022/11/08 06:41:31;;;;;;;5.80;2.30;;;8.80;99.90;;;;;;4977888;28;20232;-83
2022/11/08 06:43:57;;;;;;;6.63;2.83;;;8.80;99.90;;;;;;4993691;28;20232;-81
2022/11/08 06:46:24;;;;;;;7.80;2.60;;;8.80;99.90;;;;;;4992663;28;20263;-81
2022/11/08 06:48:51;;;;;;;6.00;2.43;;;8.90;99.90;;;;;;4974471;28;20233;-81
2022/11/08 06:51:18;;;;;;;5.80;2.13;;;8.90;99.90;;;;;;4975767;28;20563;-81
2022/11/08 06:53:45;;;;;;;7.80;2.40;;;9.00;99.90;;;;;;4977508;28;20266;-81
2022/11/08 06:56:16;;;;;;;10.27;2.63;;;9.00;99.90;;;;;;4967903;28;20238;-81
2022/11/08 06:58:43;;;;;;;7.17;2.67;;;9.00;99.90;;;;;;4986428;28;20248;-82
2022/11/08 07:01:10;;;;;;;7.33;2.57;;;9.10;99.90;;;;;;4985294;28;20216;-81
2022/11/08 07:03:37;;;;;;;9.73;2.80;;;9.10;99.90;;;;;;4983954;28;20304;-81
2022/11/08 07:06:05;;;;;;;8.77;3.13;;;9.10;99.90;;;;;;4981069;28;20847;-81
2022/11/08 07:08:32;;;;;;;5.50;2.57;;;9.20;99.90;;;;;;5002832;28;20778;-81
2022/11/08 07:10:59;;;;;;;8.10;2.70;;;9.20;99.90;;;;;;4996283;28;20253;-83
2022/11/08 07:13:27;;;;;;;6.87;2.23;;;9.20;99.90;;;;;;5004492;28;20602;-84
2022/11/08 07:15:59;;;;;;;4.43;2.10;;;9.30;99.90;;;;;;4988263;28;20229;-81
2022/11/08 07:18:27;;;;;;;5.67;2.70;;;9.30;99.90;;;;;;5002179;28;20276;-81
2022/11/08 07:20:57;;;;;;;4.30;2.10;;;9.40;99.90;;;;;;5004273;28;20231;-81
2022/11/08 07:23:24;;;;;;;6.47;2.43;;;9.40;99.90;;;;;;4996847;28;20237;-81
2022/11/08 07:25:53;;;;;;;7.27;2.30;;;9.40;99.90;;;;;;5003080;28;20681;-81
2022/11/08 07:28:23;;;;;;;6.83;2.00;;;9.50;99.90;;;;;;4983404;28;20618;-83
2022/11/08 07:30:51;;;;;;;7.57;2.30;;;9.50;99.90;;;;;;4997637;28;20232;-83
2022/11/08 07:33:17;;;;;;;6.00;2.13;;;9.50;99.90;;;;;;4982141;28;20233;-81
2022/11/08 07:35:46;;;;;;;7.07;2.40;;;9.50;99.90;;;;;;4986740;28;20312;-82
2022/11/08 07:38:13;;;;;;;5.47;2.40;;;9.60;99.90;;;;;;4990514;28;20278;-82
2022/11/08 07:40:39;;;;;;;8.43;2.40;;;9.60;99.90;;;;;;4986915;28;20228;-81
2022/11/08 07:43:06;;;;;;;4.17;2.20;;;9.60;99.90;;;;;;5005881;28;20231;-84
2022/11/08 07:45:33;;;;;;;7.00;2.27;;;9.60;99.90;;;;;;5009471;28;20241;-81
2022/11/08 07:48:02;;;;;;;9.80;2.43;;;9.60;99.90;;;;;;4978891;28;20659;-81
2022/11/08 07:50:30;;;;;;;5.40;2.10;;;9.70;99.90;;;;;;4991906;28;20225;-81
2022/11/08 07:52:57;;;;;;;5.33;2.57;;;9.80;99.90;;;;;;5004084;28;20233;-83
2022/11/08 07:55:26;;;;;;;4.27;2.13;;;9.80;99.90;;;;;;4989731;28;20246;-81
2022/11/08 07:58:00;;;;;;;8.77;2.70;;;9.90;99.90;;;;;;5005877;28;20235;-81
2022/11/08 08:00:27;;;;;;;3.27;1.90;;;10.00;99.90;;;;;;4987953;28;20252;-81
2022/11/08 08:02:57;;;;;;;7.77;2.40;;;10.10;99.90;;;;;;5003222;28;20225;-82
2022/11/08 08:05:25;;;;;;;5.77;2.40;;;10.30;99.90;;;;;;5001057;28;20259;-82
2022/11/08 08:07:52;;;;;;;5.87;2.60;;;10.40;99.90;;;;;;5003782;28;20257;-83
2022/11/08 08:10:20;;;;;;;9.97;4.63;;;10.50;99.90;;;;;;4989853;28;20236;-82
2022/11/08 08:12:47;;;;;;;9.20;4.17;;;10.80;99.90;;;;;;4991041;28;20245;-81
2022/11/08 08:15:13;;;;;;;6.63;2.57;;;10.90;99.90;;;;;;5001858;28;20235;-82
2022/11/08 08:17:40;;;;;;;6.20;2.93;;;11.10;99.90;;;;;;5005647;28;20220;-82
2022/11/08 08:20:08;;;;;;;5.43;2.47;;;11.30;99.90;;;;;;5000660;28;20234;-84
2022/11/08 08:22:36;;;;;;;7.30;3.30;;;11.40;99.90;;;;;;4981629;28;20225;-81
2022/11/08 08:25:03;;;;;;;8.43;4.07;;;11.50;99.90;;;;;;4996090;28;20232;-80
2022/11/08 08:27:32;;;;;;;7.53;2.90;;;11.60;99.90;;;;;;4989314;28;20792;-82
2022/11/08 08:29:58;;;;;;;5.40;2.83;;;11.70;99.90;;;;;;4989628;28;20223;-81
2022/11/08 08:32:25;;;;;;;7.27;3.50;;;11.80;99.90;;;;;;5006377;28;20233;-83
2022/11/08 08:34:52;;;;;;;4.07;2.23;;;11.90;99.90;;;;;;5006989;28;20229;-81
2022/11/08 08:37:18;;;;;;;4.70;2.20;;;12.00;99.90;;;;;;4999728;28;20256;-81
2022/11/08 08:39:46;;;;;;;8.07;2.33;;;12.30;99.90;;;;;;5005606;28;20236;-81
2022/11/08 08:42:14;;;;;;;4.90;2.00;;;12.50;99.90;;;;;;5000246;28;20216;-81
2022/11/08 08:44:41;;;;;;;7.30;1.80;;;12.80;99.90;;;;;;4994908;28;20230;-84
2022/11/08 08:47:08;;;;;;;5.03;1.83;;;13.10;99.90;;;;;;4987066;28;20229;-85
2022/11/08 08:49:34;;;;;;;3.73;1.63;;;13.30;99.90;;;;;;4978630;28;20228;-82
2022/11/08 08:52:03;;;;;;;4.90;1.60;;;13.50;99.90;;;;;;4982175;28;20238;-82
2022/11/08 08:54:29;;;;;;;5.67;1.83;;;13.60;99.90;;;;;;4985067;28;20596;-82
2022/11/08 08:56:57;;;;;;;4.77;1.70;;;13.60;99.90;;;;;;5005045;28;21066;-82
2022/11/08 08:59:26;;;;;;;7.27;2.17;;;13.60;99.90;;;;;;4981988;28;20279;-81
2022/11/08 09:01:53;;;;;;;4.50;1.90;;;13.60;99.90;;;;;;4990747;28;20237;-82
2022/11/08 09:04:19;;;;;;;4.10;1.87;;;13.60;99.90;;;;;;4983085;28;20231;-82
2022/11/08 09:06:46;;;;;;;3.83;1.80;;;13.60;99.90;;;;;;4984762;28;20237;-85
2022/11/08 09:09:15;;;;;;;4.13;1.93;;;13.60;99.90;;;;;;4982568;28;20228;-81
2022/11/08 09:11:42;;;;;;;5.73;2.10;;;13.70;99.90;;;;;;4977167;28;20323;-81
2022/11/08 09:14:10;;;;;;;2.47;1.57;;;13.70;99.90;;;;;;4975078;28;20225;-81
2022/11/08 09:16:37;;;;;;;4.13;1.90;;;13.80;99.90;;;;;;4982369;28;20893;-81
2022/11/08 09:19:03;;;;;;;5.10;2.03;;;13.90;99.90;;;;;;4999397;28;20227;-82
2022/11/08 09:21:31;;;;;;;6.03;1.50;;;13.90;99.90;;;;;;4979150;28;20236;-81
2022/11/08 09:23:58;;;;;;;5.37;1.87;;;14.00;99.90;;;;;;5001249;28;20222;-81
2022/11/08 09:26:24;;;;;;;4.80;2.10;;;14.00;99.90;;;;;;4985657;28;21164;-81
2022/11/08 09:28:51;;;;;;;4.17;1.70;;;13.90;99.90;;;;;;4978142;28;20664;-81
2022/11/08 09:31:20;;;;;;;4.47;1.83;;;13.90;99.90;;;;;;4972364;28;20241;-81
2022/11/08 09:33:49;;;;;;;4.73;2.30;;;13.90;99.90;;;;;;4983155;28;20227;-81
2022/11/08 09:36:16;;;;;;;6.20;1.90;;;13.70;99.90;;;;;;4986169;28;20236;-81
2022/11/08 09:38:43;;;;;;;4.97;2.27;;;13.80;99.90;;;;;;4984631;28;20368;-81
2022/11/08 09:41:51;;;;;;;4.07;2.20;;;13.90;99.90;;;;;;5004411;28;20221;-83
2022/11/08 09:44:39;;;;;;;4.93;1.80;;;13.80;99.90;;;;;;4981014;28;20267;-82
2022/11/08 09:47:15;;;;;;;4.27;1.83;;;13.90;99.90;;;;;;4994212;28;20226;-82
2022/11/08 09:49:46;;;;;;;4.47;1.80;;;13.90;99.90;;;;;;4996293;28;20228;-81
2022/11/08 09:52:22;;;;;;;4.20;1.60;;;13.80;99.90;;;;;;4982103;28;20585;-81
2022/11/08 09:54:52;;;;;;;7.63;3.10;;;13.80;99.90;;;;;;4980428;28;20230;-81
2022/11/08 09:57:23;;;;;;;4.13;2.33;;;13.70;99.90;;;;;;4994745;28;20592;-82
2022/11/08 09:59:55;;;;;;;7.87;3.00;;;13.70;99.90;;;;;;4971506;28;20232;-81
2022/11/08 10:02:24;;;;;;;6.97;2.53;;;13.70;99.90;;;;;;4978218;28;20226;-82
2022/11/08 10:05:00;;;;;;;7.00;1.97;;;13.70;99.90;;;;;;4986436;28;20305;-82
2022/11/08 10:07:34;;;;;;;5.30;1.77;;;13.60;99.90;;;;;;5003577;28;20699;-81
2022/11/08 10:10:28;;;;;;;4.33;1.70;;;13.70;99.90;;;;;;4989881;28;20246;-81
2022/11/08 10:13:03;;;;;;;3.23;1.77;;;13.60;99.90;;;;;;4945673;28;20242;-82
2022/11/08 10:15:37;;;;;;;4.97;1.83;;;13.50;99.90;;;;;;4998379;28;20231;-81
2022/11/08 10:18:27;;;;;;;5.87;2.03;;;13.50;99.90;;;;;;5004345;28;20217;-81
2022/11/08 10:21:02;;;;;;;6.70;1.97;;;13.40;99.90;;;;;;4980672;28;20720;-81
2022/11/08 10:23:41;;;;;;;6.37;3.50;;;13.30;99.90;;;;;;4982469;28;20226;-82
2022/11/08 10:26:14;;;;;;;6.33;2.27;;;13.30;99.90;;;;;;5002778;28;20241;-82
2022/11/08 10:28:48;;;;;;;6.47;2.27;;;13.30;99.90;;;;;;4996320;28;20278;-82
2022/11/08 10:31:17;;;;;;;4.97;1.87;;;13.30;99.90;;;;;;4986538;28;20231;-84
2022/11/08 10:33:50;;;;;;;5.63;2.10;;;13.30;99.90;;;;;;5000898;28;20787;-82
2022/11/08 10:36:22;;;;;;;5.57;1.90;;;13.30;99.90;;;;;;4987135;28;20637;-82
2022/11/08 10:38:56;;;;;;;3.47;1.30;;;13.30;99.90;;;;;;5002098;28;20882;-84
2022/11/08 10:41:28;;;;;;;3.03;1.60;;;13.40;99.90;;;;;;5004223;28;20222;-82
2022/11/08 10:44:03;;;;;;;4.53;1.60;;;13.40;99.90;;;;;;4997170;28;20231;-82
2022/11/08 10:46:38;;;;;;;5.90;1.80;;;13.50;99.90;;;;;;4996524;28;20931;-84
2022/11/08 10:49:13;;;;;;;4.80;1.93;;;13.50;99.90;;;;;;4988242;28;20258;-82
2022/11/08 10:51:40;;;;;;;2.90;1.50;;;13.70;99.90;;;;;;4995959;28;20287;-82
2022/11/08 10:54:42;;;;;;;2.93;1.30;;;13.70;99.90;;;;;;4986167;28;20306;-82
2022/11/08 10:57:10;;;;;;;3.23;1.50;;;13.80;99.90;;;;;;4985760;28;20307;-82
2022/11/08 10:59:36;;;;;;;4.67;1.70;;;13.80;99.90;;;;;;4999303;28;20223;-82
2022/11/08 11:02:17;;;;;;;3.37;1.50;;;13.80;99.90;;;;;;5005828;28;20223;-82
2022/11/08 11:04:45;;;;;;;4.07;1.60;;;13.80;99.90;;;;;;5003981;28;20286;-81
2022/11/08 11:07:27;;;;;;;5.50;2.10;;;13.80;99.90;;;;;;5005179;28;20237;-82
2022/11/08 11:09:57;;;;;;;4.80;1.93;;;13.80;99.90;;;;;;4998817;28;20230;-82
2022/11/08 11:12:23;;;;;;;4.20;1.83;;;13.90;99.90;;;;;;4994470;28;20320;-83
2022/11/08 11:14:57;;;;;;;3.03;1.63;;;13.90;99.90;;;;;;5002795;28;20227;-81
2022/11/08 11:17:30;;;;;;;3.63;1.40;;;13.90;99.90;;;;;;4985322;28;20247;-81
2022/11/08 11:19:58;;;;;;;2.53;1.33;;;13.90;99.90;;;;;;5000629;28;20756;-81
2022/11/08 11:22:29;;;;;;;4.03;1.40;;;13.90;99.90;;;;;;4986043;28;20358;-81
2022/11/08 11:24:56;;;;;;;4.30;1.90;;;13.90;99.90;;;;;;5002577;28;20230;-81
2022/11/08 11:27:29;;;;;;;4.20;1.37;;;13.90;99.90;;;;;;5003885;28;20231;-81
2022/11/08 11:30:21;;;;;;;4.57;1.60;;;14.00;99.90;;;;;;5003808;28;20227;-82
2022/11/08 11:32:57;;;;;;;4.33;1.70;;;13.90;99.90;;;;;;4985611;28;20254;-84
2022/11/08 11:35:27;;;;;;;5.00;1.63;;;14.00;99.90;;;;;;4981117;28;20237;-82
2022/11/08 11:37:55;;;;;;;5.20;1.80;;;14.00;99.90;;;;;;4984402;28;20236;-83
2022/11/08 11:40:30;;;;;;;3.20;1.50;;;14.00;99.90;;;;;;4980697;28;20224;-81
2022/11/08 11:43:06;;;;;;;3.17;1.57;;;14.00;99.90;;;;;;4998538;28;20227;-83
2022/11/08 11:45:46;;;;;;;5.00;1.63;;;14.00;99.90;;;;;;5000610;28;20238;-82
2022/11/08 11:48:19;;;;;;;3.07;1.30;;;14.10;99.90;;;;;;4976949;28;20225;-82
2022/11/08 11:50:49;;;;;;;4.50;1.60;;;14.20;99.90;;;;;;4997280;28;20257;-81
2022/11/08 11:53:20;;;;;;;3.77;1.57;;;14.20;99.90;;;;;;4978171;28;20635;-81
2022/11/08 11:56:36;;;;;;;2.67;1.50;;;14.20;99.90;;;;;;4983277;28;20246;-81
2022/11/08 11:59:24;;;;;;;4.43;1.37;;;14.30;99.90;;;;;;4948621;28;20586;-81
2022/11/08 12:02:08;;;;;;;7.50;1.70;;;14.30;99.90;;;;;;4993213;28;20817;-81
2022/11/08 12:04:53;;;;;;;2.20;1.20;;;14.30;99.90;;;;;;4993208;28;20234;-81
2022/11/08 12:10:21;;;;;;;3.13;1.43;;;14.30;99.90;;;;;;5000975;28;20244;-81
2022/11/08 12:12:58;;;;;;;4.13;1.60;;;14.30;99.90;;;;;;4998026;28;20248;-84
2022/11/08 12:15:31;;;;;;;3.23;1.13;;;14.30;99.90;;;;;;4995522;28;20294;-82
2022/11/08 12:18:40;;;;;;;5.07;2.03;;;14.30;99.90;;;;;;4990299;28;20456;-81
2022/11/08 12:21:12;;;;;;;3.23;1.30;;;14.30;99.90;;;;;;4925076;29;20230;-81
2022/11/08 12:24:15;;;;;;;5.03;2.80;;;14.30;99.90;;;;;;4988924;28;20268;-85
2022/11/08 12:26:49;;;;;;;3.13;1.57;;;14.40;99.90;;;;;;5002021;28;20242;-83
2022/11/08 12:29:24;;;;;;;3.27;1.60;;;14.40;99.90;;;;;;4994370;28;20215;-82
2022/11/08 12:32:06;;;;;;;4.20;1.70;;;14.40;99.90;;;;;;4982932;28;20285;-82
2022/11/08 12:34:42;;;;;;;4.00;1.40;;;14.40;99.90;;;;;;4999300;28;20699;-82
2022/11/08 12:37:17;;;;;;;3.80;1.20;;;14.50;99.90;;;;;;4979798;28;20231;-82
2022/11/08 12:39:48;;;;;;;4.23;1.30;;;14.50;99.90;;;;;;5002060;28;20818;-82
2022/11/08 12:42:27;;;;;;;5.13;1.67;;;14.50;99.90;;;;;;5002496;28;20237;-82
2022/11/08 12:45:12;;;;;;;3.67;1.10;;;14.50;99.90;;;;;;4980582;28;20782;-82
2022/11/08 12:47:44;;;;;;;2.90;1.17;;;14.50;99.90;;;;;;4988365;28;20310;-82
2022/11/08 12:50:23;;;;;;;2.70;1.07;;;14.50;99.90;;;;;;5006132;28;20225;-81
2022/11/08 12:53:06;;;;;;;1.90;1.10;;;14.50;99.90;;;;;;4989696;28;20239;-81
2022/11/08 12:55:36;;;;;;;2.70;0.97;;;14.50;99.90;;;;;;4989400;28;20580;-81
2022/11/08 12:58:14;;;;;;;3.20;1.17;;;14.50;99.90;;;;;;4993476;28;20295;-81
2022/11/08 13:00:42;;;;;;;3.63;1.00;;;14.50;99.90;;;;;;4982427;28;20225;-82
2022/11/08 13:03:32;;;;;;;1.40;1.00;;;14.50;99.90;;;;;;4979834;28;20388;-81
2022/11/08 13:06:07;;;;;;;3.33;1.20;;;14.50;99.90;;;;;;4993086;28;20678;-82
2022/11/08 13:08:43;;;;;;;2.73;0.90;;;14.50;99.90;;;;;;4996089;28;20289;-81
2022/11/08 13:11:19;;;;;;;1.97;1.00;;;14.50;99.90;;;;;;4987306;28;20322;-85
2022/11/08 13:13:50;;;;;;;3.00;1.13;;;14.50;99.90;;;;;;4981510;28;20226;-82
2022/11/08 13:16:19;;;;;;;4.17;1.23;;;14.50;99.90;;;;;;4985565;28;20232;-81
2022/11/08 13:18:48;;;;;;;2.93;1.23;;;14.50;99.90;;;;;;5000073;28;21144;-82
2022/11/08 13:21:36;;;;;;;3.17;1.00;;;14.50;99.90;;;;;;5002936;28;20253;-81
2022/11/08 13:24:42;;;;;;;2.10;1.30;;;14.50;99.90;;;;;;4979812;28;20677;-81
2022/11/08 13:27:30;;;;;;;2.50;1.23;;;14.50;99.90;;;;;;4982404;28;20224;-82
2022/11/08 13:30:04;;;;;;;2.30;0.97;;;14.50;99.90;;;;;;4997142;28;20276;-81